Doubs, Maryland
Current Conditions -  °F | °C
As of 10:55 AM on Thursday 30 Oct 2014 (Local Time) from KFDK Reporting Station
Clear Clear  
Wind Chill: 59°   Ceiling: Unl
Heat Index: 59°   Visibility: 10mi
Dew Point: 39°   Wind: 7mph
Humidity: 48%   Direction: 300°WNW
Pressure: 30.1"   Gusts: NA
Location:  39.293°N, 77.4503°W
Report Text: KFDK 301455Z 30006KT 10SM SKC 15/04 A3010
Loading
Personal Weather Stations






























Interactive Weather Map
Tropical Storm Tracking
New forecast layout! Learn more

10-Day Weather Forecast

Advertisements
Track Severe Weather on mobile